sensor_id;sensor_type;location;lat;lon;timestamp;P1;durP1;ratioP1;P2;durP2;ratioP2
13731;SDS011;6937;56.096;12.664;2023-03-14T00:00:04;29.52;;;7.10;;
13731;SDS011;6937;56.096;12.664;2023-03-14T00:02:32;32.90;;;7.75;;
13731;SDS011;6937;56.096;12.664;2023-03-14T00:04:58;26.33;;;7.15;;
13731;SDS011;6937;56.096;12.664;2023-03-14T00:07:23;25.58;;;7.15;;
13731;SDS011;6937;56.096;12.664;2023-03-14T00:09:51;35.88;;;8.23;;
13731;SDS011;6937;56.096;12.664;2023-03-14T00:12:17;31.88;;;7.78;;
13731;SDS011;6937;56.096;12.664;2023-03-14T00:14:42;28.95;;;7.03;;
13731;SDS011;6937;56.096;12.664;2023-03-14T00:17:08;42.03;;;8.95;;
13731;SDS011;6937;56.096;12.664;2023-03-14T00:19:34;34.42;;;7.03;;
13731;SDS011;6937;56.096;12.664;2023-03-14T00:21:59;30.80;;;7.40;;
13731;SDS011;6937;56.096;12.664;2023-03-14T00:24:24;31.27;;;8.20;;
13731;SDS011;6937;56.096;12.664;2023-03-14T00:26:50;34.28;;;7.88;;
13731;SDS011;6937;56.096;12.664;2023-03-14T00:29:15;34.92;;;7.40;;
13731;SDS011;6937;56.096;12.664;2023-03-14T00:31:40;33.30;;;7.25;;
13731;SDS011;6937;56.096;12.664;2023-03-14T00:34:06;33.65;;;7.00;;
13731;SDS011;6937;56.096;12.664;2023-03-14T00:36:31;25.42;;;7.22;;
13731;SDS011;6937;56.096;12.664;2023-03-14T00:38:56;25.63;;;6.82;;
13731;SDS011;6937;56.096;12.664;2023-03-14T00:41:22;34.47;;;7.95;;
13731;SDS011;6937;56.096;12.664;2023-03-14T00:43:48;30.90;;;7.32;;
13731;SDS011;6937;56.096;12.664;2023-03-14T00:46:14;29.58;;;7.28;;
13731;SDS011;6937;56.096;12.664;2023-03-14T00:48:40;26.77;;;6.85;;
13731;SDS011;6937;56.096;12.664;2023-03-14T00:51:06;30.58;;;7.55;;
13731;SDS011;6937;56.096;12.664;2023-03-14T00:53:37;29.48;;;7.00;;
13731;SDS011;6937;56.096;12.664;2023-03-14T00:56:04;35.13;;;7.35;;
13731;SDS011;6937;56.096;12.664;2023-03-14T00:58:30;25.90;;;6.93;;
13731;SDS011;6937;56.096;12.664;2023-03-14T01:00:56;28.05;;;6.50;;
13731;SDS011;6937;56.096;12.664;2023-03-14T01:03:21;28.20;;;6.80;;
13731;SDS011;6937;56.096;12.664;2023-03-14T01:05:46;28.48;;;6.38;;
13731;SDS011;6937;56.096;12.664;2023-03-14T01:08:12;28.88;;;6.95;;
13731;SDS011;6937;56.096;12.664;2023-03-14T01:10:37;26.25;;;6.90;;
13731;SDS011;6937;56.096;12.664;2023-03-14T01:13:05;27.63;;;6.30;;
13731;SDS011;6937;56.096;12.664;2023-03-14T01:15:31;30.63;;;7.32;;
13731;SDS011;6937;56.096;12.664;2023-03-14T01:17:57;26.48;;;6.88;;
13731;SDS011;6937;56.096;12.664;2023-03-14T01:20:23;27.63;;;5.68;;
13731;SDS011;6937;56.096;12.664;2023-03-14T01:22:48;31.85;;;7.30;;
13731;SDS011;6937;56.096;12.664;2023-03-14T01:25:14;24.38;;;6.40;;
13731;SDS011;6937;56.096;12.664;2023-03-14T01:27:41;25.85;;;6.38;;
13731;SDS011;6937;56.096;12.664;2023-03-14T01:30:07;30.88;;;6.20;;
13731;SDS011;6937;56.096;12.664;2023-03-14T01:32:33;26.08;;;6.00;;
13731;SDS011;6937;56.096;12.664;2023-03-14T01:34:59;30.15;;;7.20;;
13731;SDS011;6937;56.096;12.664;2023-03-14T01:37:24;32.22;;;6.15;;
13731;SDS011;6937;56.096;12.664;2023-03-14T01:39:49;25.90;;;6.35;;
13731;SDS011;6937;56.096;12.664;2023-03-14T01:42:15;26.25;;;6.32;;
13731;SDS011;6937;56.096;12.664;2023-03-14T01:44:56;35.28;;;6.70;;
13731;SDS011;6937;56.096;12.664;2023-03-14T01:47:23;28.17;;;6.45;;
13731;SDS011;6937;56.096;12.664;2023-03-14T01:49:51;24.52;;;5.93;;
13731;SDS011;6937;56.096;12.664;2023-03-14T01:52:27;24.33;;;6.55;;
13731;SDS011;6937;56.096;12.664;2023-03-14T01:54:59;29.48;;;6.82;;
13731;SDS011;6937;56.096;12.664;2023-03-14T01:57:33;29.98;;;6.63;;
13731;SDS011;6937;56.096;12.664;2023-03-14T02:02:30;27.23;;;6.22;;
13731;SDS011;6937;56.096;12.664;2023-03-14T02:04:55;26.98;;;6.75;;
13731;SDS011;6937;56.096;12.664;2023-03-14T02:07:22;26.45;;;5.97;;
13731;SDS011;6937;56.096;12.664;2023-03-14T02:09:55;26.60;;;6.72;;
13731;SDS011;6937;56.096;12.664;2023-03-14T02:12:23;27.60;;;6.80;;
13731;SDS011;6937;56.096;12.664;2023-03-14T02:14:49;25.02;;;6.60;;
13731;SDS011;6937;56.096;12.664;2023-03-14T02:17:18;28.95;;;6.53;;
13731;SDS011;6937;56.096;12.664;2023-03-14T02:22:22;24.20;;;5.57;;
13731;SDS011;6937;56.096;12.664;2023-03-14T02:24:57;28.05;;;6.53;;
13731;SDS011;6937;56.096;12.664;2023-03-14T02:27:24;24.00;;;5.50;;
13731;SDS011;6937;56.096;12.664;2023-03-14T02:29:57;29.23;;;5.95;;
13731;SDS011;6937;56.096;12.664;2023-03-14T02:32:26;28.70;;;6.20;;
13731;SDS011;6937;56.096;12.664;2023-03-14T02:34:54;26.63;;;6.15;;
13731;SDS011;6937;56.096;12.664;2023-03-14T02:37:23;24.83;;;5.90;;
13731;SDS011;6937;56.096;12.664;2023-03-14T02:39:53;24.55;;;6.55;;
13731;SDS011;6937;56.096;12.664;2023-03-14T02:42:19;20.50;;;5.65;;
13731;SDS011;6937;56.096;12.664;2023-03-14T02:44:50;24.10;;;6.00;;
13731;SDS011;6937;56.096;12.664;2023-03-14T02:47:28;29.10;;;6.53;;
13731;SDS011;6937;56.096;12.664;2023-03-14T02:49:58;25.63;;;6.07;;
13731;SDS011;6937;56.096;12.664;2023-03-14T02:52:27;26.67;;;6.30;;
13731;SDS011;6937;56.096;12.664;2023-03-14T02:54:52;28.70;;;6.22;;
13731;SDS011;6937;56.096;12.664;2023-03-14T02:57:18;22.17;;;5.70;;
13731;SDS011;6937;56.096;12.664;2023-03-14T02:59:43;24.83;;;6.32;;
13731;SDS011;6937;56.096;12.664;2023-03-14T03:02:08;23.65;;;5.63;;
13731;SDS011;6937;56.096;12.664;2023-03-14T03:04:34;30.23;;;6.10;;
13731;SDS011;6937;56.096;12.664;2023-03-14T03:06:59;28.08;;;6.65;;
13731;SDS011;6937;56.096;12.664;2023-03-14T03:09:25;31.02;;;6.70;;
13731;SDS011;6937;56.096;12.664;2023-03-14T03:11:50;26.30;;;6.60;;
13731;SDS011;6937;56.096;12.664;2023-03-14T03:14:15;24.80;;;5.57;;
13731;SDS011;6937;56.096;12.664;2023-03-14T03:16:41;24.63;;;6.00;;
13731;SDS011;6937;56.096;12.664;2023-03-14T03:19:06;28.30;;;6.20;;
13731;SDS011;6937;56.096;12.664;2023-03-14T03:21:31;25.50;;;6.10;;
13731;SDS011;6937;56.096;12.664;2023-03-14T03:23:56;24.33;;;6.03;;
13731;SDS011;6937;56.096;12.664;2023-03-14T03:26:22;27.70;;;6.28;;
13731;SDS011;6937;56.096;12.664;2023-03-14T03:28:50;22.05;;;4.97;;
13731;SDS011;6937;56.096;12.664;2023-03-14T03:31:16;25.23;;;5.10;;
13731;SDS011;6937;56.096;12.664;2023-03-14T03:33:41;28.50;;;6.20;;
13731;SDS011;6937;56.096;12.664;2023-03-14T03:36:07;27.73;;;5.60;;
13731;SDS011;6937;56.096;12.664;2023-03-14T03:38:33;25.00;;;5.13;;
13731;SDS011;6937;56.096;12.664;2023-03-14T03:41:01;22.23;;;5.75;;
13731;SDS011;6937;56.096;12.664;2023-03-14T03:43:27;24.88;;;5.80;;
13731;SDS011;6937;56.096;12.664;2023-03-14T03:45:52;23.83;;;5.72;;
13731;SDS011;6937;56.096;12.664;2023-03-14T03:48:18;24.60;;;5.57;;
13731;SDS011;6937;56.096;12.664;2023-03-14T03:50:44;24.70;;;6.45;;
13731;SDS011;6937;56.096;12.664;2023-03-14T03:53:10;24.77;;;6.03;;
13731;SDS011;6937;56.096;12.664;2023-03-14T03:55:35;24.13;;;6.15;;
13731;SDS011;6937;56.096;12.664;2023-03-14T03:58:00;26.30;;;6.07;;
13731;SDS011;6937;56.096;12.664;2023-03-14T04:00:26;29.70;;;6.20;;
13731;SDS011;6937;56.096;12.664;2023-03-14T04:02:51;26.40;;;5.50;;
13731;SDS011;6937;56.096;12.664;2023-03-14T04:05:16;23.35;;;5.72;;
13731;SDS011;6937;56.096;12.664;2023-03-14T04:07:42;25.77;;;5.47;;
13731;SDS011;6937;56.096;12.664;2023-03-14T04:10:07;27.15;;;6.13;;
13731;SDS011;6937;56.096;12.664;2023-03-14T04:12:33;29.67;;;7.50;;
13731;SDS011;6937;56.096;12.664;2023-03-14T04:14:58;21.73;;;4.97;;
13731;SDS011;6937;56.096;12.664;2023-03-14T04:17:24;27.17;;;6.30;;
13731;SDS011;6937;56.096;12.664;2023-03-14T04:19:49;30.35;;;6.80;;
13731;SDS011;6937;56.096;12.664;2023-03-14T04:22:16;26.45;;;6.03;;
13731;SDS011;6937;56.096;12.664;2023-03-14T04:24:41;25.23;;;5.68;;
13731;SDS011;6937;56.096;12.664;2023-03-14T04:27:06;22.13;;;5.90;;
13731;SDS011;6937;56.096;12.664;2023-03-14T04:29:32;26.73;;;6.30;;
13731;SDS011;6937;56.096;12.664;2023-03-14T04:31:57;26.90;;;5.80;;
13731;SDS011;6937;56.096;12.664;2023-03-14T04:34:22;27.70;;;5.97;;
13731;SDS011;6937;56.096;12.664;2023-03-14T04:36:48;30.30;;;6.00;;
13731;SDS011;6937;56.096;12.664;2023-03-14T04:39:13;25.00;;;6.05;;
13731;SDS011;6937;56.096;12.664;2023-03-14T04:41:38;28.40;;;6.32;;
13731;SDS011;6937;56.096;12.664;2023-03-14T04:44:04;25.98;;;6.00;;
13731;SDS011;6937;56.096;12.664;2023-03-14T04:46:29;29.58;;;6.25;;
13731;SDS011;6937;56.096;12.664;2023-03-14T04:48:55;27.73;;;6.70;;
13731;SDS011;6937;56.096;12.664;2023-03-14T04:51:21;25.77;;;6.03;;
13731;SDS011;6937;56.096;12.664;2023-03-14T04:53:48;24.58;;;5.65;;
13731;SDS011;6937;56.096;12.664;2023-03-14T04:56:14;24.25;;;5.85;;
13731;SDS011;6937;56.096;12.664;2023-03-14T04:58:39;25.52;;;6.53;;
13731;SDS011;6937;56.096;12.664;2023-03-14T05:01:04;20.58;;;4.90;;
13731;SDS011;6937;56.096;12.664;2023-03-14T05:03:30;27.52;;;5.70;;
13731;SDS011;6937;56.096;12.664;2023-03-14T05:05:56;25.95;;;6.00;;
13731;SDS011;6937;56.096;12.664;2023-03-14T05:08:22;26.77;;;5.70;;
13731;SDS011;6937;56.096;12.664;2023-03-14T05:10:51;25.60;;;6.18;;
13731;SDS011;6937;56.096;12.664;2023-03-14T05:13:21;22.58;;;5.20;;
13731;SDS011;6937;56.096;12.664;2023-03-14T05:15:47;27.50;;;5.35;;
13731;SDS011;6937;56.096;12.664;2023-03-14T05:18:12;30.73;;;6.20;;
13731;SDS011;6937;56.096;12.664;2023-03-14T05:20:37;26.65;;;6.55;;
13731;SDS011;6937;56.096;12.664;2023-03-14T05:23:03;21.45;;;5.57;;
13731;SDS011;6937;56.096;12.664;2023-03-14T05:25:28;24.35;;;5.82;;
13731;SDS011;6937;56.096;12.664;2023-03-14T05:27:54;23.95;;;5.68;;
13731;SDS011;6937;56.096;12.664;2023-03-14T05:30:20;23.70;;;5.95;;
13731;SDS011;6937;56.096;12.664;2023-03-14T05:32:46;25.08;;;5.60;;
13731;SDS011;6937;56.096;12.664;2023-03-14T05:35:12;22.58;;;5.63;;
13731;SDS011;6937;56.096;12.664;2023-03-14T05:37:38;22.95;;;6.00;;
13731;SDS011;6937;56.096;12.664;2023-03-14T05:40:04;17.33;;;5.15;;
13731;SDS011;6937;56.096;12.664;2023-03-14T05:42:31;25.33;;;5.63;;
13731;SDS011;6937;56.096;12.664;2023-03-14T05:44:57;26.50;;;5.55;;
13731;SDS011;6937;56.096;12.664;2023-03-14T05:47:24;20.25;;;5.28;;
13731;SDS011;6937;56.096;12.664;2023-03-14T05:49:49;23.23;;;4.68;;
13731;SDS011;6937;56.096;12.664;2023-03-14T05:52:15;23.70;;;4.82;;
13731;SDS011;6937;56.096;12.664;2023-03-14T05:54:40;21.95;;;5.03;;
13731;SDS011;6937;56.096;12.664;2023-03-14T05:57:06;23.17;;;5.43;;
13731;SDS011;6937;56.096;12.664;2023-03-14T05:59:31;23.80;;;5.15;;
13731;SDS011;6937;56.096;12.664;2023-03-14T06:01:56;23.70;;;5.18;;
13731;SDS011;6937;56.096;12.664;2023-03-14T06:04:22;24.98;;;5.57;;
13731;SDS011;6937;56.096;12.664;2023-03-14T06:06:47;28.85;;;5.20;;
13731;SDS011;6937;56.096;12.664;2023-03-14T06:09:13;25.90;;;5.40;;
13731;SDS011;6937;56.096;12.664;2023-03-14T06:11:38;26.73;;;6.70;;
13731;SDS011;6937;56.096;12.664;2023-03-14T06:14:03;25.13;;;5.38;;
13731;SDS011;6937;56.096;12.664;2023-03-14T06:16:29;23.98;;;4.97;;
13731;SDS011;6937;56.096;12.664;2023-03-14T06:18:54;22.35;;;5.40;;
13731;SDS011;6937;56.096;12.664;2023-03-14T06:21:19;23.60;;;5.38;;
13731;SDS011;6937;56.096;12.664;2023-03-14T06:23:45;19.58;;;5.07;;
13731;SDS011;6937;56.096;12.664;2023-03-14T06:26:10;20.52;;;4.70;;
13731;SDS011;6937;56.096;12.664;2023-03-14T06:28:37;19.40;;;5.15;;
13731;SDS011;6937;56.096;12.664;2023-03-14T06:31:02;20.25;;;4.97;;
13731;SDS011;6937;56.096;12.664;2023-03-14T06:33:28;16.65;;;4.35;;
13731;SDS011;6937;56.096;12.664;2023-03-14T06:35:53;21.23;;;4.93;;
13731;SDS011;6937;56.096;12.664;2023-03-14T06:38:19;18.15;;;4.85;;
13731;SDS011;6937;56.096;12.664;2023-03-14T06:40:44;18.35;;;5.20;;
13731;SDS011;6937;56.096;12.664;2023-03-14T06:43:09;20.17;;;5.40;;
13731;SDS011;6937;56.096;12.664;2023-03-14T06:45:35;16.38;;;4.47;;
13731;SDS011;6937;56.096;12.664;2023-03-14T06:48:00;18.70;;;4.22;;
13731;SDS011;6937;56.096;12.664;2023-03-14T06:50:26;23.13;;;5.00;;
13731;SDS011;6937;56.096;12.664;2023-03-14T06:52:51;23.35;;;5.05;;
13731;SDS011;6937;56.096;12.664;2023-03-14T06:55:17;17.70;;;4.20;;
13731;SDS011;6937;56.096;12.664;2023-03-14T06:57:42;18.15;;;4.75;;
13731;SDS011;6937;56.096;12.664;2023-03-14T07:00:09;22.98;;;4.82;;
13731;SDS011;6937;56.096;12.664;2023-03-14T07:02:35;20.48;;;4.78;;
13731;SDS011;6937;56.096;12.664;2023-03-14T07:05:01;16.92;;;4.85;;
13731;SDS011;6937;56.096;12.664;2023-03-14T07:07:26;20.42;;;4.53;;
13731;SDS011;6937;56.096;12.664;2023-03-14T07:09:53;19.08;;;4.78;;
13731;SDS011;6937;56.096;12.664;2023-03-14T07:12:19;22.60;;;5.22;;
13731;SDS011;6937;56.096;12.664;2023-03-14T07:14:44;18.13;;;4.60;;
13731;SDS011;6937;56.096;12.664;2023-03-14T07:17:10;20.42;;;5.10;;
13731;SDS011;6937;56.096;12.664;2023-03-14T07:19:35;16.65;;;4.50;;
13731;SDS011;6937;56.096;12.664;2023-03-14T07:22:01;19.08;;;4.60;;
13731;SDS011;6937;56.096;12.664;2023-03-14T07:24:26;15.15;;;4.38;;
13731;SDS011;6937;56.096;12.664;2023-03-14T07:26:51;17.70;;;4.40;;
13731;SDS011;6937;56.096;12.664;2023-03-14T07:29:17;19.52;;;5.40;;
13731;SDS011;6937;56.096;12.664;2023-03-14T07:31:42;15.55;;;4.40;;
13731;SDS011;6937;56.096;12.664;2023-03-14T07:34:08;17.48;;;4.05;;
13731;SDS011;6937;56.096;12.664;2023-03-14T07:36:33;13.43;;;4.18;;
13731;SDS011;6937;56.096;12.664;2023-03-14T07:38:59;15.85;;;4.13;;
13731;SDS011;6937;56.096;12.664;2023-03-14T07:41:24;16.70;;;4.70;;
13731;SDS011;6937;56.096;12.664;2023-03-14T07:43:50;13.48;;;3.83;;
13731;SDS011;6937;56.096;12.664;2023-03-14T07:46:15;15.85;;;3.63;;
13731;SDS011;6937;56.096;12.664;2023-03-14T07:48:40;15.77;;;4.20;;
13731;SDS011;6937;56.096;12.664;2023-03-14T07:51:06;12.20;;;3.70;;
13731;SDS011;6937;56.096;12.664;2023-03-14T07:53:32;13.45;;;3.90;;
13731;SDS011;6937;56.096;12.664;2023-03-14T07:55:57;17.98;;;4.47;;
13731;SDS011;6937;56.096;12.664;2023-03-14T07:58:23;16.83;;;4.72;;
13731;SDS011;6937;56.096;12.664;2023-03-14T08:00:48;16.15;;;4.13;;
13731;SDS011;6937;56.096;12.664;2023-03-14T08:03:14;18.90;;;5.05;;
13731;SDS011;6937;56.096;12.664;2023-03-14T08:05:40;16.00;;;4.68;;
13731;SDS011;6937;56.096;12.664;2023-03-14T08:08:07;14.18;;;4.10;;
13731;SDS011;6937;56.096;12.664;2023-03-14T08:10:32;9.85;;;2.92;;
13731;SDS011;6937;56.096;12.664;2023-03-14T08:12:58;7.00;;;1.90;;
13731;SDS011;6937;56.096;12.664;2023-03-14T08:15:26;4.65;;;1.95;;
13731;SDS011;6937;56.096;12.664;2023-03-14T08:17:53;7.70;;;1.98;;
13731;SDS011;6937;56.096;12.664;2023-03-14T08:20:22;5.07;;;1.30;;
13731;SDS011;6937;56.096;12.664;2023-03-14T08:22:49;4.90;;;1.15;;
13731;SDS011;6937;56.096;12.664;2023-03-14T08:25:14;6.03;;;0.98;;
13731;SDS011;6937;56.096;12.664;2023-03-14T08:27:40;4.15;;;1.20;;
13731;SDS011;6937;56.096;12.664;2023-03-14T08:30:07;6.50;;;1.50;;
13731;SDS011;6937;56.096;12.664;2023-03-14T08:32:34;6.38;;;1.40;;
13731;SDS011;6937;56.096;12.664;2023-03-14T08:34:59;9.75;;;1.63;;
13731;SDS011;6937;56.096;12.664;2023-03-14T08:37:25;9.25;;;2.15;;
13731;SDS011;6937;56.096;12.664;2023-03-14T08:39:51;8.48;;;2.28;;
13731;SDS011;6937;56.096;12.664;2023-03-14T08:42:17;12.30;;;2.60;;
13731;SDS011;6937;56.096;12.664;2023-03-14T08:44:43;12.38;;;2.50;;
13731;SDS011;6937;56.096;12.664;2023-03-14T08:47:08;18.48;;;2.58;;
13731;SDS011;6937;56.096;12.664;2023-03-14T08:49:34;13.93;;;2.65;;
13731;SDS011;6937;56.096;12.664;2023-03-14T08:52:00;15.57;;;2.72;;
13731;SDS011;6937;56.096;12.664;2023-03-14T08:54:26;17.83;;;2.97;;
13731;SDS011;6937;56.096;12.664;2023-03-14T08:56:52;22.55;;;3.63;;
13731;SDS011;6937;56.096;12.664;2023-03-14T08:59:17;19.92;;;3.70;;
13731;SDS011;6937;56.096;12.664;2023-03-14T09:01:43;16.98;;;3.33;;
13731;SDS011;6937;56.096;12.664;2023-03-14T09:04:08;19.90;;;3.28;;
13731;SDS011;6937;56.096;12.664;2023-03-14T09:06:34;21.25;;;3.38;;
13731;SDS011;6937;56.096;12.664;2023-03-14T09:09:00;20.35;;;3.38;;
13731;SDS011;6937;56.096;12.664;2023-03-14T09:11:26;19.70;;;3.38;;
13731;SDS011;6937;56.096;12.664;2023-03-14T09:13:51;15.23;;;2.30;;
13731;SDS011;6937;56.096;12.664;2023-03-14T09:16:17;15.88;;;2.38;;
13731;SDS011;6937;56.096;12.664;2023-03-14T09:18:42;14.15;;;2.60;;
13731;SDS011;6937;56.096;12.664;2023-03-14T09:21:07;15.20;;;2.60;;
13731;SDS011;6937;56.096;12.664;2023-03-14T09:23:33;21.55;;;3.10;;
13731;SDS011;6937;56.096;12.664;2023-03-14T09:25:59;12.07;;;2.05;;
13731;SDS011;6937;56.096;12.664;2023-03-14T09:28:25;17.13;;;2.53;;
13731;SDS011;6937;56.096;12.664;2023-03-14T09:30:50;18.73;;;2.72;;
13731;SDS011;6937;56.096;12.664;2023-03-14T09:33:16;14.57;;;2.67;;
13731;SDS011;6937;56.096;12.664;2023-03-14T09:35:42;16.77;;;2.33;;
13731;SDS011;6937;56.096;12.664;2023-03-14T09:38:07;19.73;;;3.20;;
13731;SDS011;6937;56.096;12.664;2023-03-14T09:40:37;18.17;;;3.00;;
13731;SDS011;6937;56.096;12.664;2023-03-14T09:43:03;17.40;;;2.70;;
13731;SDS011;6937;56.096;12.664;2023-03-14T09:47:59;13.83;;;2.20;;
13731;SDS011;6937;56.096;12.664;2023-03-14T09:50:27;16.73;;;1.92;;
13731;SDS011;6937;56.096;12.664;2023-03-14T09:53:02;15.05;;;2.17;;
13731;SDS011;6937;56.096;12.664;2023-03-14T09:55:31;15.13;;;2.13;;
13731;SDS011;6937;56.096;12.664;2023-03-14T09:57:59;14.70;;;2.30;;
13731;SDS011;6937;56.096;12.664;2023-03-14T10:00:27;12.27;;;2.30;;
13731;SDS011;6937;56.096;12.664;2023-03-14T10:02:57;17.58;;;2.60;;
13731;SDS011;6937;56.096;12.664;2023-03-14T10:05:38;14.05;;;2.38;;
13731;SDS011;6937;56.096;12.664;2023-03-14T10:08:05;8.35;;;2.17;;
13731;SDS011;6937;56.096;12.664;2023-03-14T10:10:30;10.43;;;2.70;;
13731;SDS011;6937;56.096;12.664;2023-03-14T10:15:53;14.50;;;2.22;;
13731;SDS011;6937;56.096;12.664;2023-03-14T10:18:31;13.23;;;2.00;;
13731;SDS011;6937;56.096;12.664;2023-03-14T10:23:42;7.60;;;1.80;;
13731;SDS011;6937;56.096;12.664;2023-03-14T10:26:12;8.50;;;1.60;;
13731;SDS011;6937;56.096;12.664;2023-03-14T10:28:41;8.70;;;1.87;;
13731;SDS011;6937;56.096;12.664;2023-03-14T10:31:07;12.88;;;1.67;;
13731;SDS011;6937;56.096;12.664;2023-03-14T10:33:36;12.98;;;2.20;;
13731;SDS011;6937;56.096;12.664;2023-03-14T10:36:03;7.60;;;1.30;;
13731;SDS011;6937;56.096;12.664;2023-03-14T10:38:40;5.43;;;1.20;;
13731;SDS011;6937;56.096;12.664;2023-03-14T10:41:14;7.45;;;1.10;;
13731;SDS011;6937;56.096;12.664;2023-03-14T10:43:42;6.38;;;1.48;;
13731;SDS011;6937;56.096;12.664;2023-03-14T10:46:09;11.37;;;1.77;;
13731;SDS011;6937;56.096;12.664;2023-03-14T10:48:39;9.80;;;1.90;;
13731;SDS011;6937;56.096;12.664;2023-03-14T10:53:43;8.63;;;1.50;;
13731;SDS011;6937;56.096;12.664;2023-03-14T10:56:11;7.28;;;1.63;;
13731;SDS011;6937;56.096;12.664;2023-03-14T10:58:44;11.60;;;1.75;;
13731;SDS011;6937;56.096;12.664;2023-03-14T11:07:08;8.13;;;1.57;;
13731;SDS011;6937;56.096;12.664;2023-03-14T11:12:31;12.87;;;1.60;;
13731;SDS011;6937;56.096;12.664;2023-03-14T11:15:11;8.97;;;1.63;;
13731;SDS011;6937;56.096;12.664;2023-03-14T11:25:52;10.37;;;1.80;;
13731;SDS011;6937;56.096;12.664;2023-03-14T11:30:55;13.70;;;2.25;;
13731;SDS011;6937;56.096;12.664;2023-03-14T11:33:43;7.57;;;1.75;;
13731;SDS011;6937;56.096;12.664;2023-03-14T11:36:22;8.13;;;1.70;;
13731;SDS011;6937;56.096;12.664;2023-03-14T11:38:56;14.85;;;2.15;;
13731;SDS011;6937;56.096;12.664;2023-03-14T11:44:15;13.57;;;1.83;;
13731;SDS011;6937;56.096;12.664;2023-03-14T11:46:46;8.52;;;1.77;;
13731;SDS011;6937;56.096;12.664;2023-03-14T11:51:43;7.70;;;1.92;;
13731;SDS011;6937;56.096;12.664;2023-03-14T11:56:57;9.60;;;1.85;;
13731;SDS011;6937;56.096;12.664;2023-03-14T11:59:27;10.93;;;2.03;;
13731;SDS011;6937;56.096;12.664;2023-03-14T12:04:36;9.75;;;2.58;;
13731;SDS011;6937;56.096;12.664;2023-03-14T12:07:21;11.63;;;2.80;;
13731;SDS011;6937;56.096;12.664;2023-03-14T12:09:53;10.50;;;2.30;;
13731;SDS011;6937;56.096;12.664;2023-03-14T12:12:21;12.82;;;2.42;;
13731;SDS011;6937;56.096;12.664;2023-03-14T12:14:53;10.88;;;2.42;;
13731;SDS011;6937;56.096;12.664;2023-03-14T12:17:26;13.80;;;2.80;;
13731;SDS011;6937;56.096;12.664;2023-03-14T12:20:04;8.43;;;2.25;;
13731;SDS011;6937;56.096;12.664;2023-03-14T12:22:46;11.77;;;2.35;;
13731;SDS011;6937;56.096;12.664;2023-03-14T12:25:18;9.40;;;2.33;;
13731;SDS011;6937;56.096;12.664;2023-03-14T12:27:47;9.75;;;2.35;;
13731;SDS011;6937;56.096;12.664;2023-03-14T12:38:11;9.18;;;2.05;;
13731;SDS011;6937;56.096;12.664;2023-03-14T12:43:25;10.20;;;2.70;;
13731;SDS011;6937;56.096;12.664;2023-03-14T12:46:29;10.68;;;2.30;;
13731;SDS011;6937;56.096;12.664;2023-03-14T12:51:28;12.05;;;2.22;;
13731;SDS011;6937;56.096;12.664;2023-03-14T12:54:09;8.23;;;2.22;;
13731;SDS011;6937;56.096;12.664;2023-03-14T12:59:51;7.07;;;2.08;;
13731;SDS011;6937;56.096;12.664;2023-03-14T13:02:28;10.88;;;2.35;;
13731;SDS011;6937;56.096;12.664;2023-03-14T13:05:03;12.43;;;2.70;;
13731;SDS011;6937;56.096;12.664;2023-03-14T13:21:01;9.70;;;2.15;;
13731;SDS011;6937;56.096;12.664;2023-03-14T13:23:31;7.13;;;2.00;;
13731;SDS011;6937;56.096;12.664;2023-03-14T13:25:59;8.82;;;2.13;;
13731;SDS011;6937;56.096;12.664;2023-03-14T13:28:26;14.25;;;2.03;;
13731;SDS011;6937;56.096;12.664;2023-03-14T13:30:59;11.70;;;2.10;;
13731;SDS011;6937;56.096;12.664;2023-03-14T13:33:27;8.88;;;2.00;;
13731;SDS011;6937;56.096;12.664;2023-03-14T13:36:00;9.18;;;2.05;;
13731;SDS011;6937;56.096;12.664;2023-03-14T13:38:30;12.38;;;2.47;;
13731;SDS011;6937;56.096;12.664;2023-03-14T13:40:58;10.93;;;1.95;;
13731;SDS011;6937;56.096;12.664;2023-03-14T13:45:51;8.02;;;2.13;;
13731;SDS011;6937;56.096;12.664;2023-03-14T13:48:20;7.15;;;2.17;;
13731;SDS011;6937;56.096;12.664;2023-03-14T13:50:51;8.57;;;2.13;;
13731;SDS011;6937;56.096;12.664;2023-03-14T13:53:18;7.18;;;1.80;;
13731;SDS011;6937;56.096;12.664;2023-03-14T13:55:44;6.60;;;1.80;;
13731;SDS011;6937;56.096;12.664;2023-03-14T13:58:20;9.40;;;2.10;;
13731;SDS011;6937;56.096;12.664;2023-03-14T14:01:01;9.38;;;2.40;;
13731;SDS011;6937;56.096;12.664;2023-03-14T14:03:32;9.02;;;2.00;;
13731;SDS011;6937;56.096;12.664;2023-03-14T14:06:01;9.27;;;2.38;;
13731;SDS011;6937;56.096;12.664;2023-03-14T14:08:27;12.10;;;2.40;;
13731;SDS011;6937;56.096;12.664;2023-03-14T14:10:54;9.73;;;2.05;;
13731;SDS011;6937;56.096;12.664;2023-03-14T14:13:24;7.03;;;1.90;;
13731;SDS011;6937;56.096;12.664;2023-03-14T14:15:52;10.65;;;2.10;;
13731;SDS011;6937;56.096;12.664;2023-03-14T14:18:19;13.73;;;2.80;;
13731;SDS011;6937;56.096;12.664;2023-03-14T14:20:48;13.82;;;2.75;;
13731;SDS011;6937;56.096;12.664;2023-03-14T14:23:16;9.43;;;2.00;;
13731;SDS011;6937;56.096;12.664;2023-03-14T14:25:54;14.30;;;2.47;;
13731;SDS011;6937;56.096;12.664;2023-03-14T14:31:15;13.63;;;2.85;;
13731;SDS011;6937;56.096;12.664;2023-03-14T14:33:45;9.63;;;2.58;;
13731;SDS011;6937;56.096;12.664;2023-03-14T14:36:22;9.82;;;2.78;;
13731;SDS011;6937;56.096;12.664;2023-03-14T14:38:53;12.00;;;2.72;;
13731;SDS011;6937;56.096;12.664;2023-03-14T14:41:26;9.18;;;2.42;;
13731;SDS011;6937;56.096;12.664;2023-03-14T14:43:54;11.90;;;2.70;;
13731;SDS011;6937;56.096;12.664;2023-03-14T14:46:20;11.85;;;2.40;;
13731;SDS011;6937;56.096;12.664;2023-03-14T14:48:46;11.88;;;2.95;;
13731;SDS011;6937;56.096;12.664;2023-03-14T14:51:22;9.65;;;2.30;;
13731;SDS011;6937;56.096;12.664;2023-03-14T14:57:12;9.73;;;2.60;;
13731;SDS011;6937;56.096;12.664;2023-03-14T14:59:43;12.68;;;2.47;;
13731;SDS011;6937;56.096;12.664;2023-03-14T15:02:23;12.20;;;2.65;;
13731;SDS011;6937;56.096;12.664;2023-03-14T15:04:54;13.23;;;2.45;;
13731;SDS011;6937;56.096;12.664;2023-03-14T15:07:19;13.07;;;3.00;;
13731;SDS011;6937;56.096;12.664;2023-03-14T15:09:44;11.80;;;2.63;;
13731;SDS011;6937;56.096;12.664;2023-03-14T15:12:10;13.95;;;2.60;;
13731;SDS011;6937;56.096;12.664;2023-03-14T15:14:35;15.05;;;2.72;;
13731;SDS011;6937;56.096;12.664;2023-03-14T15:17:00;10.52;;;2.42;;
13731;SDS011;6937;56.096;12.664;2023-03-14T15:19:26;11.82;;;2.80;;
13731;SDS011;6937;56.096;12.664;2023-03-14T15:21:54;10.75;;;2.58;;
13731;SDS011;6937;56.096;12.664;2023-03-14T15:24:20;12.50;;;2.80;;
13731;SDS011;6937;56.096;12.664;2023-03-14T15:26:46;9.63;;;2.00;;
13731;SDS011;6937;56.096;12.664;2023-03-14T15:29:11;8.82;;;2.33;;
13731;SDS011;6937;56.096;12.664;2023-03-14T15:31:37;11.18;;;2.10;;
13731;SDS011;6937;56.096;12.664;2023-03-14T15:34:04;9.55;;;2.30;;
13731;SDS011;6937;56.096;12.664;2023-03-14T15:36:30;7.95;;;2.45;;
13731;SDS011;6937;56.096;12.664;2023-03-14T15:38:57;9.00;;;2.03;;
13731;SDS011;6937;56.096;12.664;2023-03-14T15:41:24;8.43;;;1.98;;
13731;SDS011;6937;56.096;12.664;2023-03-14T15:43:50;8.10;;;2.28;;
13731;SDS011;6937;56.096;12.664;2023-03-14T15:46:16;8.95;;;2.25;;
13731;SDS011;6937;56.096;12.664;2023-03-14T15:48:43;10.52;;;2.30;;
13731;SDS011;6937;56.096;12.664;2023-03-14T15:51:09;12.93;;;2.67;;
13731;SDS011;6937;56.096;12.664;2023-03-14T15:53:35;11.52;;;2.03;;
13731;SDS011;6937;56.096;12.664;2023-03-14T15:56:07;11.20;;;2.40;;
13731;SDS011;6937;56.096;12.664;2023-03-14T15:58:35;9.38;;;1.98;;
13731;SDS011;6937;56.096;12.664;2023-03-14T16:01:01;7.40;;;1.92;;
13731;SDS011;6937;56.096;12.664;2023-03-14T16:03:30;10.27;;;2.00;;